Welcome to Northern Hawkes Bay. New Zealand.
PWS Header
      nz Flag



Hit Counter


W3C Valid W3C Valid logo


    Wairoa

Select any of the Stations below to visit their websites.










Historic Data from Weather Underground
Select the location of interest below. Wairoa is the default. Please have patience, this Data is slow to load in.
Northern Hawkes Bay Historical Data
Daily Summary for July 5, 2017 Units:  Metric    English   Both
« Previous Day
Next Day »
Daily Weekly Monthly Yearly Custom
  High: Low: Average:
Temperature: 15.5 °C 2.5 °C 7.3 °C
Dew Point: 6.7 °C 2.1 °C 4.7 °C
Humidity: 99% 47% 86%
Wind Speed: 12.2km/h 0.0km/h 4.5km/h
Wind Gust: 20.9km/h - -
Wind- - WSW
Pressure: 1016.1 hPa 1012.8 hPa -
Precipitation: 0.0 mm    
Historical Graphs
 
 
Tabular Data for July 5, 2017
Time Temperature Dew Point Pressure Wind Wind Speed Wind Gust Humidity Rainfall Rate (Hourly) solar
00:02 5.2 °C 4.9 °C 1012.8 hPa NNE 3.5 km/h 6.1 km/h 98% 0.0 mm 0 W/m2
00:07 5.2 °C 4.9 °C 1012.8 hPa NNE 1.1 km/h 5.0 km/h 98% 0.0 mm 0 W/m2
00:12 5.2 °C 4.9 °C 1012.8 hPa Calm   5.0 km/h 98% 0.0 mm 0 W/m2
00:17 5.1 °C 4.8 °C 1012.8 hPa NNE 1.1 km/h 5.0 km/h 98% 0.0 mm 0 W/m2
00:22 5.1 °C 4.9 °C 1012.8 hPa NNE 1.1 km/h 5.0 km/h 99% 0.0 mm 0 W/m2
00:27 4.9 °C 4.8 °C 1012.8 hPa NNE 1.1 km/h 5.0 km/h 99% 0.0 mm 0 W/m2
00:32 4.7 °C 4.6 °C 1012.8 hPa North 2.6 km/h 5.0 km/h 99% 0.0 mm 0 W/m2
00:37 4.8 °C 4.7 °C 1012.8 hPa NNW 5.0 km/h 7.2 km/h 99% 0.0 mm 0 W/m2
00:42 5.0 °C 4.8 °C 1012.8 hPa NNW 2.6 km/h 8.7 km/h 99% 0.0 mm 0 W/m2
00:47 4.9 °C 4.8 °C 1012.8 hPa North 2.6 km/h 8.7 km/h 99% 0.0 mm 0 W/m2
00:52 4.8 °C 4.7 °C 1012.8 hPa NNE 1.1 km/h 5.0 km/h 99% 0.0 mm 0 W/m2
00:57 4.7 °C 4.6 °C 1013.1 hPa NNE 2.6 km/h 5.0 km/h 99% 0.0 mm 0 W/m2
01:02 4.6 °C 4.4 °C 1013.1 hPa Calm   5.0 km/h 99% 0.0 mm 0 W/m2
01:08 4.5 °C 4.3 °C 1013.1 hPa North 1.1 km/h 3.5 km/h 99% 0.0 mm 0 W/m2
01:13 4.5 °C 4.3 °C 1012.8 hPa NNW 5.0 km/h 6.1 km/h 99% 0.0 mm 0 W/m2
01:18 4.9 °C 4.8 °C 1012.8 hPa NNW 1.1 km/h 6.1 km/h 99% 0.0 mm 0 W/m2
01:23 4.8 °C 4.7 °C 1013.1 hPa NNW 1.1 km/h 6.1 km/h 99% 0.0 mm 0 W/m2
01:28 4.6 °C 4.4 °C 1013.1 hPa NNE 2.6 km/h 5.0 km/h 99% 0.0 mm 0 W/m2
01:33 4.7 °C 4.6 °C 1013.1 hPa NNE 3.5 km/h 7.2 km/h 99% 0.0 mm 0 W/m2
01:38 4.5 °C 4.3 °C 1013.1 hPa NE 1.1 km/h 7.2 km/h 99% 0.0 mm 0 W/m2
01:43 4.6 °C 4.4 °C 1013.1 hPa NNE 2.6 km/h 5.0 km/h 99% 0.0 mm 0 W/m2
01:48 4.5 °C 4.3 °C 1013.1 hPa Calm   3.5 km/h 99% 0.0 mm 0 W/m2
01:53 4.5 °C 4.3 °C 1013.1 hPa NNE 2.6 km/h 5.0 km/h 99% 0.0 mm 0 W/m2
01:58 4.3 °C 4.2 °C 1013.4 hPa North 2.6 km/h 5.0 km/h 99% 0.0 mm 0 W/m2
02:03 4.3 °C 4.2 °C 1013.4 hPa North 2.6 km/h 5.0 km/h 99% 0.0 mm 0 W/m2
02:08 4.1 °C 3.9 °C 1013.4 hPa North 2.6 km/h 5.0 km/h 99% 0.0 mm 0 W/m2
02:13 4.2 °C 4.1 °C 1013.4 hPa North 5.0 km/h 7.2 km/h 99% 0.0 mm 0 W/m2
02:18 4.0 °C 3.8 °C 1013.4 hPa North 2.6 km/h 7.2 km/h 99% 0.0 mm 0 W/m2
02:23 3.9 °C 3.8 °C 1013.1 hPa NNE 3.5 km/h 7.2 km/h 99% 0.0 mm 0 W/m2
02:28 4.0 °C 3.8 °C 1013.4 hPa North 5.0 km/h 7.2 km/h 99% 0.0 mm 0 W/m2
02:33 4.0 °C 3.8 °C 1013.4 hPa North 1.1 km/h 7.2 km/h 99% 0.0 mm 0 W/m2
02:38 3.8 °C 3.7 °C 1013.4 hPa NNE 3.5 km/h 6.1 km/h 99% 0.0 mm 0 W/m2
02:43 3.8 °C 3.7 °C 1013.4 hPa North 3.5 km/h 6.1 km/h 99% 0.0 mm 0 W/m2
02:48 3.8 °C 3.7 °C 1013.4 hPa North 2.6 km/h 6.1 km/h 99% 0.0 mm 0 W/m2
02:53 3.7 °C 3.6 °C 1013.4 hPa North 1.1 km/h 6.1 km/h 99% 0.0 mm 0 W/m2
02:58 3.6 °C 3.4 °C 1013.4 hPa NNE 3.5 km/h 5.0 km/h 99% 0.0 mm 0 W/m2
03:03 3.5 °C 3.3 °C 1013.4 hPa NNE 1.1 km/h 5.0 km/h 99% 0.0 mm 0 W/m2
03:08 3.4 °C 3.3 °C 1013.4 hPa Calm   5.0 km/h 99% 0.0 mm 0 W/m2
03:13 3.3 °C 3.2 °C 1013.4 hPa North 2.6 km/h 5.0 km/h 99% 0.0 mm 0 W/m2
03:18 3.2 °C 3.1 °C 1013.4 hPa North 5.0 km/h 6.1 km/h 99% 0.0 mm 0 W/m2
03:23 3.2 °C 3.1 °C 1013.4 hPa NNW 2.6 km/h 6.1 km/h 99% 0.0 mm 0 W/m2
03:28 3.3 °C 3.2 °C 1013.4 hPa North 2.6 km/h 6.1 km/h 99% 0.0 mm 0 W/m2
03:33 3.3 °C 3.2 °C 1013.1 hPa North 1.1 km/h 6.1 km/h 99% 0.0 mm 0 W/m2
03:38 3.2 °C 3.1 °C 1013.4 hPa North 1.1 km/h 6.1 km/h 99% 0.0 mm 0 W/m2
03:43 3.1 °C 2.9 °C 1013.1 hPa NNE 1.1 km/h 5.0 km/h 99% 0.0 mm 0 W/m2
03:48 3.2 °C 3.1 °C 1013.4 hPa NNE 2.6 km/h 5.0 km/h 99% 0.0 mm 0 W/m2
03:53 3.3 °C 3.2 °C 1013.4 hPa North 5.0 km/h 6.1 km/h 99% 0.0 mm 0 W/m2
03:58 3.3 °C 3.2 °C 1013.1 hPa North 3.5 km/h 6.1 km/h 99% 0.0 mm 0 W/m2
04:03 3.3 °C 3.2 °C 1013.1 hPa North 2.6 km/h 6.1 km/h 99% 0.0 mm 0 W/m2
04:08 3.3 °C 3.2 °C 1013.4 hPa North 2.6 km/h 5.0 km/h 99% 0.0 mm 0 W/m2
04:13 3.3 °C 3.2 °C 1013.4 hPa North 2.6 km/h 8.7 km/h 99% 0.0 mm 0 W/m2
04:18 3.4 °C 3.3 °C 1013.4 hPa North 3.5 km/h 8.7 km/h 99% 0.0 mm 0 W/m2
04:23 3.3 °C 3.2 °C 1013.4 hPa NNW 3.5 km/h 7.2 km/h 99% 0.0 mm 0 W/m2
04:42 3.4 °C 3.3 °C 1013.4 hPa NW 3.5 km/h 9.7 km/h 99% 0.0 mm 0 W/m2
04:47 3.5 °C 3.3 °C 1013.1 hPa NNW 3.5 km/h 9.7 km/h 99% 0.0 mm 0 W/m2
04:52 3.5 °C 3.3 °C 1013.1 hPa NNW 3.5 km/h 8.7 km/h 99% 0.0 mm 0 W/m2
04:57 3.3 °C 3.2 °C 1013.4 hPa NNW 2.6 km/h 6.1 km/h 99% 0.0 mm 0 W/m2
05:02 3.2 °C 3.1 °C 1013.4 hPa NW 6.1 km/h 7.2 km/h 99% 0.0 mm 0 W/m2
05:07 3.1 °C 2.9 °C 1013.4 hPa NW 6.1 km/h 8.7 km/h 99% 0.0 mm 0 W/m2
05:12 3.1 °C 2.9 °C 1013.4 hPa NNW 3.5 km/h 8.7 km/h 99% 0.0 mm 0 W/m2
05:17 3.0 °C 2.8 °C 1013.4 hPa NNW 5.0 km/h 8.7 km/h 99% 0.0 mm 0 W/m2
05:22 3.0 °C 2.8 °C 1013.4 hPa NNW 3.5 km/h 7.2 km/h 99% 0.0 mm 0 W/m2
05:27 2.8 °C 2.4 °C 1013.4 hPa NW 3.5 km/h 7.2 km/h 97% 0.0 mm 0 W/m2
05:32 2.8 °C 2.4 °C 1013.8 hPa NW 3.5 km/h 7.2 km/h 97% 0.0 mm 0 W/m2
05:37 2.7 °C 2.3 °C 1013.8 hPa NW 3.5 km/h 7.2 km/h 97% 0.0 mm 0 W/m2
05:42 2.8 °C 2.4 °C 1013.8 hPa NW 7.2 km/h 9.7 km/h 97% 0.0 mm 0 W/m2
05:47 3.0 °C 2.8 °C 1013.8 hPa NW 6.1 km/h 11.1 km/h 99% 0.0 mm 0 W/m2
05:52 3.1 °C 2.9 °C 1013.8 hPa NW 7.2 km/h 11.1 km/h 99% 0.0 mm 0 W/m2
05:57 3.1 °C 2.9 °C 1013.8 hPa NW 7.2 km/h 11.1 km/h 99% 0.0 mm 0 W/m2
06:02 3.1 °C 2.9 °C 1013.8 hPa NW 6.1 km/h 11.1 km/h 99% 0.0 mm 0 W/m2
06:07 3.0 °C 2.8 °C 1013.8 hPa NW 7.2 km/h 11.1 km/h 99% 0.0 mm 0 W/m2
06:12 2.9 °C 2.5 °C 1013.8 hPa NNW 7.2 km/h 11.1 km/h 97% 0.0 mm 0 W/m2
06:17 2.8 °C 2.4 °C 1013.8 hPa NW 6.1 km/h 11.1 km/h 97% 0.0 mm 0 W/m2
06:22 2.7 °C 2.3 °C 1013.8 hPa NW 5.0 km/h 9.7 km/h 97% 0.0 mm 0 W/m2
06:27 2.6 °C 2.2 °C 1014.1 hPa NW 5.0 km/h 9.7 km/h 97% 0.0 mm 0 W/m2
06:32 2.6 °C 2.2 °C 1013.8 hPa NW 6.1 km/h 9.7 km/h 97% 0.0 mm 0 W/m2
06:37 2.7 °C 2.3 °C 1014.1 hPa WNW 5.0 km/h 9.7 km/h 97% 0.0 mm 0 W/m2
06:42 2.7 °C 2.3 °C 1014.1 hPa NW 5.0 km/h 9.7 km/h 97% 0.0 mm 0 W/m2
06:47 2.7 °C 2.3 °C 1014.1 hPa NW 6.1 km/h 9.7 km/h 97% 0.0 mm 0 W/m2
06:52 2.6 °C 2.2 °C 1014.1 hPa NW 7.2 km/h 9.7 km/h 97% 0.0 mm 0 W/m2
06:57 2.5 °C 2.1 °C 1014.1 hPa NW 7.2 km/h 12.2 km/h 97% 0.0 mm 0 W/m2
07:02 2.6 °C 2.2 °C 1014.1 hPa NW 7.2 km/h 12.2 km/h 97% 0.0 mm 0 W/m2
07:07 2.6 °C 2.2 °C 1014.1 hPa NW 6.1 km/h 11.1 km/h 97% 0.0 mm 0 W/m2
07:12 2.6 °C 2.2 °C 1014.1 hPa NW 6.1 km/h 11.1 km/h 97% 0.0 mm 0 W/m2
07:17 2.7 °C 2.3 °C 1014.1 hPa NW 6.1 km/h 11.1 km/h 97% 0.0 mm 0 W/m2
07:22 2.7 °C 2.3 °C 1014.4 hPa NW 6.1 km/h 11.1 km/h 97% 0.0 mm 0 W/m2
07:27 2.7 °C 2.3 °C 1014.4 hPa NW 5.0 km/h 11.1 km/h 97% 0.0 mm 0 W/m2
07:32 2.7 °C 2.3 °C 1014.4 hPa NW 5.0 km/h 11.1 km/h 97% 0.0 mm 0 W/m2
07:37 2.6 °C 2.2 °C 1014.8 hPa NW 6.1 km/h 11.1 km/h 97% 0.0 mm 3 W/m2
07:42 2.5 °C 2.1 °C 1014.8 hPa NW 6.1 km/h 11.1 km/h 97% 0.0 mm 7 W/m2
07:47 2.7 °C 2.3 °C 1014.8 hPa NW 7.2 km/h 11.1 km/h 97% 0.0 mm 26 W/m2
07:52 2.9 °C 2.5 °C 1014.8 hPa NW 7.2 km/h 12.2 km/h 97% 0.0 mm 36 W/m2
07:57 3.1 °C 2.9 °C 1014.8 hPa NW 9.7 km/h 12.2 km/h 99% 0.0 mm 47 W/m2
08:02 3.1 °C 2.9 °C 1014.8 hPa NW 7.2 km/h 12.2 km/h 99% 0.0 mm 57 W/m2
08:07 3.2 °C 3.1 °C 1014.8 hPa NW 6.1 km/h 12.2 km/h 99% 0.0 mm 68 W/m2
08:12 3.3 °C 3.2 °C 1015.1 hPa NW 8.7 km/h 12.2 km/h 99% 0.0 mm 79 W/m2
08:17 3.5 °C 3.3 °C 1014.8 hPa NW 8.7 km/h 12.2 km/h 99% 0.3 mm 89 W/m2
08:22 3.6 °C 3.4 °C 1015.1 hPa NW 7.2 km/h 12.2 km/h 99% 0.3 mm 99 W/m2
08:27 3.8 °C 3.7 °C 1015.1 hPa NW 6.1 km/h 12.2 km/h 99% 0.3 mm 109 W/m2
08:32 4.1 °C 3.9 °C 1015.1 hPa NW 8.7 km/h 12.2 km/h 99% 0.3 mm 118 W/m2
08:37 4.4 °C 4.3 °C 1015.5 hPa NW 9.7 km/h 12.2 km/h 99% 0.3 mm 128 W/m2
08:42 4.5 °C 4.3 °C 1015.1 hPa NW 8.7 km/h 12.2 km/h 99% 0.3 mm 140 W/m2
08:47 4.8 °C 4.7 °C 1015.1 hPa NW 9.7 km/h 13.4 km/h 99% 0.3 mm 155 W/m2
08:52 5.1 °C 4.9 °C 1015.1 hPa NW 8.7 km/h 13.4 km/h 99% 0.3 mm 171 W/m2
08:57 5.2 °C 4.8 °C 1015.1 hPa NW 12.2 km/h 15.8 km/h 97% 0.3 mm 184 W/m2
09:02 5.4 °C 4.8 °C 1015.5 hPa NW 7.2 km/h 15.8 km/h 96% 0.3 mm 195 W/m2
09:07 5.7 °C 4.9 °C 1015.5 hPa NW 7.2 km/h 15.8 km/h 95% 0.3 mm 206 W/m2
09:13 6.1 °C 5.1 °C 1015.8 hPa NNW 8.7 km/h 14.8 km/h 93% 0.3 mm 215 W/m2
09:18 6.2 °C 5.0 °C 1015.5 hPa NW 7.2 km/h 15.8 km/h 92% 0.0 mm 223 W/m2
09:23 6.4 °C 4.9 °C 1015.5 hPa NNW 11.1 km/h 17.2 km/h 90% 0.0 mm 234 W/m2
09:28 6.5 °C 4.7 °C 1015.8 hPa NNW 12.2 km/h 17.2 km/h 88% 0.0 mm 235 W/m2
09:33 6.7 °C 4.7 °C 1015.8 hPa NW 12.2 km/h 15.8 km/h 87% 0.0 mm 228 W/m2
09:38 6.8 °C 4.6 °C 1015.8 hPa NW 9.7 km/h 17.2 km/h 86% 0.0 mm 220 W/m2
09:43 6.9 °C 4.7 °C 1015.5 hPa NNW 8.7 km/h 19.5 km/h 86% 0.0 mm 181 W/m2
09:49 7.3 °C 4.9 °C 1015.8 hPa NNW 5.0 km/h 19.5 km/h 85% 0.0 mm 106 W/m2
09:54 7.6 °C 5.1 °C 1016.1 hPa NNW 7.2 km/h 17.2 km/h 84% 0.0 mm 98 W/m2
09:59 8.0 °C 5.6 °C 1016.1 hPa NNW 9.7 km/h 17.2 km/h 85% 0.0 mm 72 W/m2
10:04 8.2 °C 5.3 °C 1016.1 hPa North 6.1 km/h 14.8 km/h 82% 0.0 mm 71 W/m2
10:09 8.6 °C 5.5 °C 1016.1 hPa North 7.2 km/h 15.8 km/h 81% 0.0 mm 69 W/m2
10:14 8.9 °C 5.3 °C 1016.1 hPa NNW 7.2 km/h 15.8 km/h 78% 0.0 mm 64 W/m2
10:19 9.1 °C 5.3 °C 1016.1 hPa NNW 9.7 km/h 13.4 km/h 77% 0.0 mm 62 W/m2
10:24 9.3 °C 5.3 °C 1016.1 hPa NNW 6.1 km/h 14.8 km/h 76% 0.0 mm 61 W/m2
10:29 9.4 °C 5.4 °C 1016.1 hPa NNW 9.7 km/h 14.8 km/h 76% 0.0 mm 59 W/m2
10:34 9.5 °C 5.5 °C 1016.1 hPa NW 7.2 km/h 14.8 km/h 76% 0.0 mm 57 W/m2
10:39 9.6 °C 5.4 °C 1016.1 hPa NW 8.7 km/h 14.8 km/h 75% 0.0 mm 54 W/m2
10:45 9.8 °C 5.6 °C 1016.1 hPa NNW 5.0 km/h 14.8 km/h 75% 0.0 mm 53 W/m2
10:50 9.9 °C 5.7 °C 1016.1 hPa NNW 6.1 km/h 14.8 km/h 75% 0.0 mm 53 W/m2
10:55 10.3 °C 5.9 °C 1016.1 hPa North 8.7 km/h 13.4 km/h 74% 0.0 mm 56 W/m2
11:00 10.4 °C 5.9 °C 1016.1 hPa North 5.0 km/h 12.2 km/h 74% 0.0 mm 56 W/m2
11:05 10.5 °C 5.7 °C 1016.1 hPa North 7.2 km/h 13.4 km/h 72% 0.0 mm 55 W/m2
11:10 10.4 °C 5.8 °C 1016.1 hPa NNW 5.0 km/h 13.4 km/h 73% 0.0 mm 55 W/m2
11:16 10.8 °C 6.2 °C 1016.1 hPa NNW 6.1 km/h 14.8 km/h 73% 0.0 mm 68 W/m2
11:21 10.9 °C 6.1 °C 1016.1 hPa NNW 5.0 km/h 14.8 km/h 72% 0.0 mm 67 W/m2
11:26 10.9 °C 6.1 °C 1016.1 hPa NNW 5.0 km/h 12.2 km/h 72% 0.0 mm 60 W/m2
11:31 11.4 °C 6.3 °C 1016.1 hPa NNW 2.6 km/h 9.7 km/h 71% 0.0 mm 51 W/m2
11:36 11.9 °C 6.6 °C 1015.8 hPa NNW 3.5 km/h 6.1 km/h 70% 0.0 mm 62 W/m2
11:41 12.7 °C 6.5 °C 1015.8 hPa NNW 2.6 km/h 6.1 km/h 66% 0.0 mm 59 W/m2
11:46 12.9 °C 6.3 °C 1015.5 hPa NNW 3.5 km/h 6.1 km/h 64% 0.0 mm 51 W/m2
11:51 12.9 °C 5.8 °C 1015.5 hPa NW 6.1 km/h 11.1 km/h 62% 0.0 mm 49 W/m2
11:56 13.0 °C 6.1 °C 1015.5 hPa NNW 2.6 km/h 11.1 km/h 63% 0.0 mm 49 W/m2
12:01 13.5 °C 6.4 °C 1015.5 hPa NNW 3.5 km/h 8.7 km/h 62% 0.0 mm 46 W/m2
12:06 13.3 °C 5.9 °C 1015.5 hPa NW 3.5 km/h 9.7 km/h 61% 0.0 mm 51 W/m2
12:11 13.6 °C 6.4 °C 1015.5 hPa NW 5.0 km/h 9.7 km/h 62% 0.0 mm 52 W/m2
12:16 13.6 °C 6.0 °C 1015.5 hPa NW 5.0 km/h 9.7 km/h 60% 0.0 mm 51 W/m2
12:21 13.6 °C 5.7 °C 1015.5 hPa NW 3.5 km/h 9.7 km/h 59% 0.0 mm 52 W/m2
12:26 14.0 °C 5.9 °C 1015.1 hPa NW 3.5 km/h 9.7 km/h 58% 0.0 mm 52 W/m2
12:31 15.1 °C 6.7 °C 1015.1 hPa WNW 2.6 km/h 9.7 km/h 57% 0.0 mm 54 W/m2
12:36 15.5 °C 5.9 °C 1015.1 hPa NW 2.6 km/h 7.2 km/h 53% 0.0 mm 58 W/m2
12:53 14.3 °C 3.2 °C 1015.5 hPa SW 7.2 km/h 17.2 km/h 47% 0.0 mm 61 W/m2
12:58 13.9 °C 3.4 °C 1015.1 hPa SW 12.2 km/h 17.2 km/h 49% 0.0 mm 63 W/m2
13:03 13.9 °C 3.4 °C 1015.1 hPa SW 11.1 km/h 17.2 km/h 49% 0.0 mm 67 W/m2
13:08 13.9 °C 3.1 °C 1015.1 hPa SW 11.1 km/h 20.9 km/h 48% 0.0 mm 71 W/m2
13:13 14.0 °C 3.2 °C 1015.1 hPa SW 12.2 km/h 20.9 km/h 48% 0.0 mm 76 W/m2
13:18 14.5 °C 3.9 °C 1014.8 hPa SW 8.7 km/h 20.9 km/h 49% 0.0 mm 74 W/m2
13:23 14.3 °C 3.4 °C 1014.8 hPa SW 9.7 km/h 19.5 km/h 48% 0.0 mm 73 W/m2
13:28 14.2 °C 3.7 °C 1014.8 hPa SW 11.1 km/h 19.5 km/h 49% 0.0 mm 70 W/m2
13:33 14.2 °C 3.7 °C 1014.8 hPa SSW 9.7 km/h 17.2 km/h 49% 0.0 mm 69 W/m2
13:38 14.1 °C 3.6 °C 1014.8 hPa SSW 9.7 km/h 18.3 km/h 49% 0.0 mm 70 W/m2
13:43 14.2 °C 3.7 °C 1014.8 hPa SW 7.2 km/h 18.3 km/h 49% 0.0 mm 71 W/m2
13:48 14.3 °C 3.7 °C 1014.4 hPa SW 11.1 km/h 18.3 km/h 49% 0.0 mm 73 W/m2
13:53 14.2 °C 3.9 °C 1014.4 hPa SW 12.2 km/h 19.5 km/h 50% 0.0 mm 73 W/m2
13:58 13.9 °C 3.9 °C 1014.4 hPa SW 9.7 km/h 19.5 km/h 51% 0.0 mm 95 W/m2
14:02 13.9 °C 4.2 °C 1014.4 hPa SW 6.1 km/h 17.2 km/h 52% 0.0 mm 130 W/m2
14:07 14.0 °C 4.0 °C 1014.4 hPa SW 9.7 km/h 17.2 km/h 51% 0.0 mm 182 W/m2
14:12 14.3 °C 4.6 °C 1014.4 hPa SSW 6.1 km/h 17.2 km/h 52% 0.0 mm 228 W/m2
14:17 14.9 °C 5.7 °C 1014.4 hPa SSW 7.2 km/h 14.8 km/h 54% 0.0 mm 235 W/m2
14:22 15.0 °C 5.8 °C 1014.4 hPa South 8.7 km/h 15.8 km/h 54% 0.0 mm 236 W/m2
14:27 14.7 °C 5.8 °C 1014.4 hPa South 8.7 km/h 15.8 km/h 55% 0.0 mm 235 W/m2
14:32 14.7 °C 6.3 °C 1014.4 hPa South 11.1 km/h 14.8 km/h 57% 0.0 mm 233 W/m2
14:37 14.7 °C 6.3 °C 1014.8 hPa South 8.7 km/h 14.8 km/h 57% 0.0 mm 234 W/m2
14:42 14.6 °C 6.2 °C 1014.4 hPa South 6.1 km/h 14.8 km/h 57% 0.0 mm 231 W/m2
14:47 14.6 °C 5.9 °C 1014.4 hPa SSE 7.2 km/h 14.8 km/h 56% 0.0 mm 221 W/m2
14:52 14.7 °C 6.0 °C 1014.4 hPa SSE 5.0 km/h 14.8 km/h 56% 0.0 mm 213 W/m2
14:57 14.7 °C 5.8 °C 1014.4 hPa South 9.7 km/h 14.8 km/h 55% 0.0 mm 205 W/m2
15:02 15.0 °C 5.8 °C 1014.4 hPa South 3.5 km/h 14.8 km/h 54% 0.0 mm 198 W/m2
15:07 15.1 °C 5.6 °C 1014.4 hPa South 9.7 km/h 14.8 km/h 53% 0.0 mm 195 W/m2
15:12 15.2 °C 5.7 °C 1014.4 hPa South 8.7 km/h 14.8 km/h 53% 0.0 mm 196 W/m2
15:17 14.0 °C 4.8 °C 1014.4 hPa SSE 3.5 km/h 13.4 km/h 54% 0.0 mm 69 W/m2
15:22 13.2 °C 4.9 °C 1014.4 hPa SSE 2.6 km/h 11.1 km/h 57% 0.0 mm 65 W/m2
15:27 12.7 °C 5.1 °C 1014.8 hPa SE 2.6 km/h 7.2 km/h 60% 0.0 mm 62 W/m2
15:32 12.4 °C 5.1 °C 1014.8 hPa SE 2.6 km/h 7.2 km/h 61% 0.0 mm 54 W/m2
15:37 12.2 °C 5.1 °C 1014.8 hPa SE 1.1 km/h 7.2 km/h 62% 0.0 mm 47 W/m2
15:42 12.0 °C 5.2 °C 1014.8 hPa SE 2.6 km/h 7.2 km/h 63% 0.0 mm 42 W/m2
15:47 11.8 °C 5.7 °C 1014.8 hPa Calm   5.0 km/h 66% 0.0 mm 38 W/m2
15:52 11.7 °C 5.8 °C 1014.8 hPa SE 2.6 km/h 3.5 km/h 67% 0.0 mm 36 W/m2
15:57 11.5 °C 5.6 °C 1014.8 hPa SE 1.1 km/h 3.5 km/h 67% 0.0 mm 34 W/m2
16:02 11.4 °C 5.9 °C 1014.8 hPa SE 1.1 km/h 5.0 km/h 69% 0.0 mm 30 W/m2
16:07 11.2 °C 5.7 °C 1014.8 hPa SE 2.6 km/h 5.0 km/h 69% 0.0 mm 30 W/m2
16:12 11.0 °C 5.7 °C 1014.8 hPa SE 1.1 km/h 5.0 km/h 70% 0.0 mm 27 W/m2
16:17 11.0 °C 5.7 °C 1014.8 hPa SE 1.1 km/h 5.0 km/h 70% 0.0 mm 24 W/m2
16:22 10.9 °C 5.8 °C 1014.8 hPa ESE 1.1 km/h 5.0 km/h 71% 0.0 mm 21 W/m2
16:27 10.9 °C 5.8 °C 1014.8 hPa East 2.6 km/h 5.0 km/h 71% 0.0 mm 16 W/m2
16:32 11.0 °C 5.6 °C 1014.8 hPa East 1.1 km/h 6.1 km/h 69% 0.0 mm 16 W/m2
16:37 11.6 °C 5.9 °C 1014.8 hPa Calm   6.1 km/h 68% 0.0 mm 12 W/m2
16:42 11.6 °C 5.7 °C 1014.8 hPa ESE 1.1 km/h 5.0 km/h 67% 0.0 mm 8 W/m2
16:47 11.3 °C 5.4 °C 1014.8 hPa Calm   2.6 km/h 67% 0.0 mm 4 W/m2
16:52 11.0 °C 5.1 °C 1014.8 hPa ESE 1.1 km/h 3.5 km/h 67% 0.0 mm 2 W/m2
16:57 10.7 °C 5.2 °C 1014.8 hPa Calm   3.5 km/h 69% 0.0 mm 0 W/m2
17:02 10.4 °C 5.2 °C 1014.8 hPa Calm   2.6 km/h 70% 0.0 mm 0 W/m2
17:07 10.1 °C 5.1 °C 1015.1 hPa Calm   1.1 km/h 71% 0.0 mm 0 W/m2
17:12 9.8 °C 5.4 °C 1014.8 hPa NNW 2.6 km/h 3.5 km/h 74% 0.0 mm 0 W/m2
17:17 9.4 °C 5.4 °C 1015.1 hPa NW 2.6 km/h 5.0 km/h 76% 0.0 mm 0 W/m2
17:22 9.1 °C 5.4 °C 1014.8 hPa NW 2.6 km/h 5.0 km/h 78% 0.0 mm 0 W/m2
17:27 8.9 °C 5.8 °C 1015.1 hPa NW 2.6 km/h 3.5 km/h 81% 0.0 mm 0 W/m2
17:33 8.8 °C 6.1 °C 1015.1 hPa NNW 2.6 km/h 5.0 km/h 83% 0.0 mm 0 W/m2
17:38 8.8 °C 6.4 °C 1015.1 hPa NNW 2.6 km/h 5.0 km/h 85% 0.0 mm 0 W/m2
17:43 8.7 °C 6.3 °C 1015.1 hPa NW 1.1 km/h 3.5 km/h 85% 0.0 mm 0 W/m2
17:48 8.8 °C 6.4 °C 1014.8 hPa NW 1.1 km/h 3.5 km/h 85% 0.0 mm 0 W/m2
17:53 8.7 °C 6.3 °C 1015.1 hPa Calm   3.5 km/h 85% 0.0 mm 0 W/m2
17:58 8.7 °C 6.3 °C 1015.1 hPa North 1.1 km/h 3.5 km/h 85% 0.0 mm 0 W/m2
18:03 8.7 °C 6.5 °C 1015.1 hPa North 2.6 km/h 3.5 km/h 86% 0.0 mm 0 W/m2
18:08 8.7 °C 6.5 °C 1015.1 hPa NNW 1.1 km/h 3.5 km/h 86% 0.0 mm 0 W/m2
18:13 8.6 °C 6.4 °C 1015.1 hPa NW 1.1 km/h 3.5 km/h 86% 0.0 mm 0 W/m2
18:18 8.5 °C 6.3 °C 1015.1 hPa Calm   2.6 km/h 86% 0.0 mm 0 W/m2
18:23 8.3 °C 6.1 °C 1015.1 hPa Calm   2.6 km/h 86% 0.0 mm 0 W/m2
18:28 8.2 °C 6.0 °C 1015.1 hPa NNE 1.1 km/h 3.5 km/h 86% 0.0 mm 0 W/m2
18:33 8.0 °C 5.9 °C 1015.1 hPa Calm   3.5 km/h 87% 0.0 mm 0 W/m2
18:38 7.9 °C 5.9 °C 1015.1 hPa NNE 1.1 km/h 3.5 km/h 87% 0.0 mm 0 W/m2
18:43 7.8 °C 5.9 °C 1015.1 hPa North 2.6 km/h 3.5 km/h 88% 0.0 mm 0 W/m2
18:49 7.7 °C 5.8 °C 1015.1 hPa North 1.1 km/h 5.0 km/h 88% 0.0 mm 0 W/m2
18:54 7.5 °C 5.8 °C 1015.1 hPa North 2.6 km/h 5.0 km/h 89% 0.0 mm 0 W/m2
18:59 7.4 °C 5.9 °C 1015.1 hPa North 2.6 km/h 3.5 km/h 90% 0.0 mm 0 W/m2
19:04 7.4 °C 5.9 °C 1015.5 hPa North 1.1 km/h 3.5 km/h 90% 0.0 mm 0 W/m2
19:09 7.2 °C 5.7 °C 1015.5 hPa North 2.6 km/h 3.5 km/h 90% 0.0 mm 0 W/m2
19:14 7.2 °C 5.8 °C 1015.5 hPa NNW 2.6 km/h 3.5 km/h 91% 0.0 mm 0 W/m2
19:19 7.1 °C 5.7 °C 1015.5 hPa NNW 2.6 km/h 3.5 km/h 91% 0.0 mm 0 W/m2
19:24 7.1 °C 5.9 °C 1015.5 hPa North 2.6 km/h 5.0 km/h 92% 0.0 mm 0 W/m2
19:29 7.1 °C 5.9 °C 1015.5 hPa North 2.6 km/h 5.0 km/h 92% 0.0 mm 0 W/m2
19:34 7.1 °C 6.1 °C 1015.5 hPa NNW 2.6 km/h 5.0 km/h 93% 0.0 mm 0 W/m2
19:39 7.1 °C 6.1 °C 1015.8 hPa North 2.6 km/h 5.0 km/h 93% 0.0 mm 0 W/m2
19:44 7.1 °C 6.1 °C 1015.8 hPa North 2.6 km/h 5.0 km/h 93% 0.0 mm 0 W/m2
19:49 7.1 °C 6.2 °C 1015.8 hPa North 2.6 km/h 5.0 km/h 94% 0.0 mm 0 W/m2
19:54 7.2 °C 6.3 °C 1015.8 hPa North 2.6 km/h 5.0 km/h 94% 0.0 mm 0 W/m2
19:59 7.1 °C 6.2 °C 1015.8 hPa North 2.6 km/h 5.0 km/h 94% 0.0 mm 0 W/m2
20:04 7.1 °C 6.2 °C 1015.8 hPa NNW 3.5 km/h 5.0 km/h 94% 0.0 mm 0 W/m2
20:09 7.1 °C 6.2 °C 1015.8 hPa NNW 3.5 km/h 6.1 km/h 94% 0.0 mm 0 W/m2
20:14 7.1 °C 6.2 °C 1015.8 hPa NNW 1.1 km/h 6.1 km/h 94% 0.0 mm 0 W/m2
20:19 7.1 °C 6.2 °C 1015.8 hPa North 2.6 km/h 6.1 km/h 94% 0.0 mm 0 W/m2
20:24 7.0 °C 6.1 °C 1015.8 hPa NNW 2.6 km/h 3.5 km/h 94% 0.0 mm 0 W/m2
20:29 6.9 °C 6.2 °C 1015.8 hPa NNW 2.6 km/h 5.0 km/h 95% 0.0 mm 0 W/m2
20:34 6.8 °C 6.1 °C 1015.8 hPa NNW 3.5 km/h 5.0 km/h 95% 0.0 mm 0 W/m2
20:39 6.8 °C 6.1 °C 1015.5 hPa NNW 2.6 km/h 5.0 km/h 95% 0.0 mm 0 W/m2
20:44 6.7 °C 5.9 °C 1015.8 hPa NW 3.5 km/h 6.1 km/h 95% 0.0 mm 0 W/m2
20:49 6.7 °C 5.9 °C 1015.8 hPa NW 3.5 km/h 6.1 km/h 95% 0.0 mm 0 W/m2
20:54 6.7 °C 5.9 °C 1015.5 hPa NW 3.5 km/h 6.1 km/h 95% 0.0 mm 0 W/m2
20:59 6.7 °C 5.9 °C 1015.5 hPa NW 5.0 km/h 8.7 km/h 95% 0.0 mm 0 W/m2
21:04 6.6 °C 5.8 °C 1015.5 hPa NW 5.0 km/h 8.7 km/h 95% 0.0 mm 0 W/m2
21:09 6.6 °C 5.8 °C 1015.8 hPa NNW 5.0 km/h 7.2 km/h 95% 0.0 mm 0 W/m2
21:14 6.5 °C 5.8 °C 1015.8 hPa NNW 3.5 km/h 7.2 km/h 95% 0.0 mm 0 W/m2
21:19 6.5 °C 5.8 °C 1015.8 hPa NW 3.5 km/h 7.2 km/h 95% 0.0 mm 0 W/m2
21:24 6.3 °C 5.6 °C 1016.1 hPa NNW 3.5 km/h 6.1 km/h 95% 0.0 mm 0 W/m2
21:41 6.2 °C 5.6 °C 1016.1 hPa NNW 3.5 km/h 8.7 km/h 96% 0.0 mm 0 W/m2
21:46 6.3 °C 5.7 °C 1016.1 hPa NNW 5.0 km/h 7.2 km/h 96% 0.0 mm 0 W/m2
21:51 6.4 °C 5.9 °C 1016.1 hPa NNW 2.6 km/h 7.2 km/h 97% 0.0 mm 0 W/m2
21:56 6.4 °C 5.9 °C 1016.1 hPa NNW 5.0 km/h 7.2 km/h 97% 0.0 mm 0 W/m2
22:01 6.4 °C 5.9 °C 1016.1 hPa NNW 2.6 km/h 6.1 km/h 97% 0.0 mm 0 W/m2
22:06 6.3 °C 5.8 °C 1016.1 hPa North 3.5 km/h 7.2 km/h 97% 0.0 mm 0 W/m2
22:11 6.3 °C 5.8 °C 1016.1 hPa NNW 2.6 km/h 7.2 km/h 97% 0.0 mm 0 W/m2
22:16 6.3 °C 5.8 °C 1016.1 hPa NNW 5.0 km/h 7.2 km/h 97% 0.0 mm 0 W/m2
22:21 6.2 °C 5.8 °C 1016.1 hPa NNW 3.5 km/h 8.7 km/h 97% 0.0 mm 0 W/m2
22:26 6.1 °C 5.7 °C 1016.1 hPa NNW 5.0 km/h 8.7 km/h 97% 0.0 mm 0 W/m2
22:31 6.1 °C 5.7 °C 1016.1 hPa NW 3.5 km/h 7.2 km/h 97% 0.0 mm 0 W/m2
22:36 6.0 °C 5.6 °C 1016.1 hPa NW 6.1 km/h 9.7 km/h 97% 0.0 mm 0 W/m2
22:41 6.0 °C 5.6 °C 1016.1 hPa NNW 5.0 km/h 9.7 km/h 97% 0.0 mm 0 W/m2
22:46 6.1 °C 5.7 °C 1016.1 hPa NNW 5.0 km/h 9.7 km/h 97% 0.0 mm 0 W/m2
22:51 6.0 °C 5.4 °C 1016.1 hPa NNW 5.0 km/h 8.7 km/h 96% 0.0 mm 0 W/m2
22:56 5.9 °C 5.4 °C 1015.8 hPa NNW 3.5 km/h 8.7 km/h 97% 0.0 mm 0 W/m2
23:01 5.7 °C 5.3 °C 1015.8 hPa NW 3.5 km/h 7.2 km/h 97% 0.0 mm 0 W/m2
23:06 5.5 °C 5.1 °C 1016.1 hPa NW 3.5 km/h 7.2 km/h 97% 0.0 mm 0 W/m2
23:11 5.4 °C 4.8 °C 1016.1 hPa NW 5.0 km/h 7.2 km/h 96% 0.0 mm 0 W/m2
23:16 5.3 °C 4.7 °C 1016.1 hPa NW 3.5 km/h 7.2 km/h 96% 0.0 mm 0 W/m2
23:21 5.2 °C 4.6 °C 1016.1 hPa NW 2.6 km/h 6.1 km/h 96% 0.0 mm 0 W/m2
23:26 5.1 °C 4.5 °C 1015.8 hPa NNW 3.5 km/h 6.1 km/h 96% 0.0 mm 0 W/m2
23:31 5.1 °C 4.7 °C 1016.1 hPa NNW 5.0 km/h 7.2 km/h 97% 0.0 mm 0 W/m2
23:36 5.0 °C 4.6 °C 1015.8 hPa NNW 3.5 km/h 7.2 km/h 97% 0.0 mm 0 W/m2
23:41 5.0 °C 4.6 °C 1015.8 hPa NNW 5.0 km/h 7.2 km/h 97% 0.0 mm 0 W/m2
23:46 4.9 °C 4.6 °C 1015.8 hPa NNW 6.1 km/h 8.7 km/h 98% 0.0 mm 0 W/m2
23:51 4.9 °C 4.6 °C 1016.1 hPa NW 5.0 km/h 8.7 km/h 98% 0.0 mm 0 W/m2
23:56 4.8 °C 4.5 °C 1016.1 hPa NW 5.0 km/h 9.7 km/h 98% 0.0 mm 0 W/m2
Northern Hawkes Bay. New Zealand Historic Data
Compliments of Weather Underground - 2.25 mb